Avondale, Ohio
Current Conditions -  °F | °C
As of 8:53 PM on Wednesday 17 Dec 2014 (Local Time) from KLUK Reporting Station
Overcast Overcast  
Wind Chill: -6°   Ceiling: 2200
Heat Index: -2°   Visibility: 10mi
Dew Point: -6°   Wind: 7mph
Humidity: 72%   Direction: 270°W
Pressure: 30.29"   Gusts: NA
Location:  39.1532°N, 84.4859°W
Report Text: KLUK 180153Z 27006KT 10SM OVC022 M02/M06 A3029 RMK AO2 SLP261 T10171061
Loading
Personal Weather Stations






























Interactive Weather Map New forecast layout! Learn more

10-Day Weather Forecast

Advertisements
Track Severe Weather on mobile